createdAt,value
2023-04-29T00:00:24.513Z,11.89
2023-04-29T00:01:25.888Z,10.5
2023-04-29T00:02:24.065Z,11.89
2023-04-29T00:03:24.466Z,11.30
2023-04-29T00:04:23.510Z,10.5
2023-04-29T00:05:24.422Z,11.30
2023-04-29T00:06:23.406Z,10.89
2023-04-29T00:07:23.489Z,9.899
2023-04-29T00:08:22.977Z,11.10
2023-04-29T00:09:23.559Z,12.10
2023-04-29T00:10:23.336Z,12.5
2023-04-29T00:11:23.002Z,12.39
2023-04-29T00:12:23.315Z,13.39
2023-04-29T00:13:23.124Z,14.69
2023-04-29T00:14:23.285Z,11.30
2023-04-29T00:15:23.849Z,12.69
2023-04-29T00:16:23.520Z,13.60
2023-04-29T00:17:23.586Z,13.10
2023-04-29T00:19:23.582Z,13.19
2023-04-29T00:20:23.535Z,14.10
2023-04-29T00:21:23.287Z,13.19
2023-04-29T00:22:23.592Z,13.69
2023-04-29T00:23:23.419Z,13.80
2023-04-29T00:24:23.203Z,13.69
2023-04-29T00:25:23.549Z,14.19
2023-04-29T00:26:22.880Z,13.89
2023-04-29T00:27:23.324Z,14.10
2023-04-29T00:28:28.750Z,13
2023-04-29T00:29:23.225Z,13.39
2023-04-29T00:30:24.096Z,13.89
2023-04-29T00:31:23.613Z,12.69
2023-04-29T00:32:31.225Z,13.19
2023-04-29T00:33:23.816Z,14.19
2023-04-29T00:34:31.326Z,13.30
2023-04-29T00:35:23.645Z,14.10
2023-04-29T00:36:23.175Z,13.10
2023-04-29T00:37:23.560Z,12.80
2023-04-29T00:38:23.158Z,14.10
2023-04-29T00:39:23.392Z,15.39
2023-04-29T00:40:23.238Z,13.19
2023-04-29T00:41:23.741Z,15.89
2023-04-29T00:42:23.523Z,13.80
2023-04-29T00:43:23.329Z,12.69
2023-04-29T00:44:23.300Z,14.30
2023-04-29T00:45:23.242Z,15.10
2023-04-29T00:46:37.828Z,14.69
2023-04-29T00:47:23.197Z,16.60
2023-04-29T00:48:23.519Z,14.30
2023-04-29T00:49:23.063Z,15.60
2023-04-29T00:51:22.918Z,14.89
2023-04-29T00:52:23.453Z,15.89
2023-04-29T00:53:23.146Z,15.39
2023-04-29T00:55:23.231Z,15.80
2023-04-29T00:56:23.490Z,15.39
2023-04-29T00:57:23.326Z,16.39
2023-04-29T00:58:42.119Z,15.80
2023-04-29T00:59:23.646Z,14.69
2023-04-29T01:00:43.144Z,15.69
2023-04-29T01:01:23.195Z,16.70
2023-04-29T01:02:23.466Z,16.5
2023-04-29T01:03:23.523Z,17
2023-04-29T01:04:23.646Z,14.60
2023-04-29T01:05:23.322Z,16.39
2023-04-29T01:06:23.696Z,15.60
2023-04-29T01:07:23.031Z,17
2023-04-29T01:08:23.102Z,16.29
2023-04-29T01:09:23.826Z,16.5
2023-04-29T01:10:23.336Z,13.60
2023-04-29T01:11:23.578Z,16.5
2023-04-29T01:12:23.102Z,15.10
2023-04-29T01:13:23.658Z,15.19
2023-04-29T01:14:23.217Z,15.89
2023-04-29T01:15:23.673Z,16
2023-04-29T01:16:23.213Z,14.89
2023-04-29T01:17:23.482Z,14.69
2023-04-29T01:18:22.985Z,14.5
2023-04-29T01:19:23.167Z,16.10
2023-04-29T01:20:23.636Z,16
2023-04-29T01:21:23.256Z,15.19
2023-04-29T01:22:23.547Z,16.79
2023-04-29T01:23:23.349Z,15.30
2023-04-29T01:24:23.169Z,16.10
2023-04-29T01:25:23.120Z,17.39
2023-04-29T01:26:23.510Z,16.60
2023-04-29T01:27:22.987Z,16.79
2023-04-29T01:28:23.722Z,15.69
2023-04-29T01:29:23.853Z,14.19
2023-04-29T01:31:23.569Z,14.69
2023-04-29T01:32:23.576Z,14.60
2023-04-29T01:33:23.348Z,15.19
2023-04-29T01:34:23.636Z,13.10
2023-04-29T01:35:23.176Z,13.80
2023-04-29T01:36:23.605Z,13.60
2023-04-29T01:37:23.234Z,13.10
2023-04-29T01:38:23.435Z,13
2023-04-29T01:39:23.103Z,13.5
2023-04-29T01:40:23.607Z,11.89
2023-04-29T01:41:23.092Z,13.60
2023-04-29T01:42:23.395Z,14.30
2023-04-29T01:43:23.088Z,13.80
2023-04-29T01:44:23.688Z,13.19
2023-04-29T01:45:23.459Z,13.89
2023-04-29T01:46:22.969Z,14.10
2023-04-29T01:47:23.431Z,12.60
2023-04-29T01:48:23.112Z,13.19
2023-04-29T01:49:23.510Z,13.69
2023-04-29T01:50:23.307Z,13.80
2023-04-29T01:51:22.950Z,13.39
2023-04-29T01:52:23.766Z,12.39
2023-04-29T01:53:23.048Z,13.39
2023-04-29T01:54:23.427Z,12.19
2023-04-29T01:55:23.090Z,11.69
2023-04-29T01:56:23.896Z,13.19
2023-04-29T01:57:23.489Z,12.5
2023-04-29T01:58:23.622Z,12.80
2023-04-29T01:59:23.189Z,12.30
2023-04-29T02:00:24.546Z,11.89
2023-04-29T02:01:23.277Z,12.30
2023-04-29T02:02:22.924Z,12.89
2023-04-29T02:03:23.807Z,12.60
2023-04-29T02:04:23.501Z,13.19
2023-04-29T02:05:23.247Z,12.10
2023-04-29T02:06:22.820Z,13.5
2023-04-29T02:07:23.257Z,12.5
2023-04-29T02:08:23.558Z,13.80
2023-04-29T02:09:23.100Z,11.80
2023-04-29T02:10:23.585Z,11.5
2023-04-29T02:11:23.158Z,12.19
2023-04-29T02:12:23.618Z,12
2023-04-29T02:13:23.081Z,11.60
2023-04-29T02:16:23.550Z,11.89
2023-04-29T02:17:23.597Z,11.5
2023-04-29T02:18:23.197Z,11.30
2023-04-29T02:19:22.906Z,10.19
2023-04-29T02:20:23.664Z,12.89
2023-04-29T02:21:23.523Z,12.5
2023-04-29T02:22:23.261Z,11.89
2023-04-29T02:23:23.716Z,11.5
2023-04-29T02:25:23.332Z,13.5
2023-04-29T02:26:23.143Z,13.10
2023-04-29T02:28:23.122Z,11.5
2023-04-29T02:29:23.653Z,12.60
2023-04-29T02:30:23.312Z,11.10
2023-04-29T02:31:23.291Z,12.80
2023-04-29T02:32:23.269Z,11.5
2023-04-29T02:33:23.058Z,12.5
2023-04-29T02:34:23.907Z,12.39
2023-04-29T02:35:23.323Z,12.80
2023-04-29T02:36:23.701Z,13.5
2023-04-29T02:37:23.168Z,11.10
2023-04-29T02:38:23.597Z,12
2023-04-29T02:39:23.229Z,13.69
2023-04-29T02:40:23.284Z,12.30
2023-04-29T02:41:22.950Z,12.80
2023-04-29T02:42:23.457Z,12.39
2023-04-29T02:43:23.300Z,13.39
2023-04-29T02:44:23.665Z,14.89
2023-04-29T02:45:23.598Z,12.89
2023-04-29T02:46:23.315Z,13.10
2023-04-29T02:47:23.175Z,13
2023-04-29T02:49:22.790Z,15.19
2023-04-29T02:50:23.757Z,14.89
2023-04-29T02:51:23.410Z,13.60
2023-04-29T02:52:23.142Z,12.69
2023-04-29T02:53:23.764Z,14.80
2023-04-29T02:54:23.707Z,15.60
2023-04-29T02:55:23.547Z,14.10
2023-04-29T02:56:23.376Z,12.89
2023-04-29T02:57:23.353Z,12.60
2023-04-29T02:58:23.307Z,15.19
2023-04-29T02:59:31.021Z,12.80
2023-04-29T03:00:24.537Z,13.5
2023-04-29T03:01:31.429Z,13.69
2023-04-29T03:02:23.565Z,13.80
2023-04-29T03:03:23.778Z,14.30
2023-04-29T03:04:23.671Z,14.89
2023-04-29T03:05:23.488Z,14.60
2023-04-29T03:06:22.915Z,14.10
2023-04-29T03:07:23.466Z,13.39
2023-04-29T03:08:23.141Z,14.10
2023-04-29T03:09:23.815Z,14.69
2023-04-29T03:10:23.489Z,14.39
2023-04-29T03:11:23.175Z,14.69
2023-04-29T03:12:23.118Z,13.5
2023-04-29T03:13:23.013Z,13.60
2023-04-29T03:14:23.669Z,14.80
2023-04-29T03:15:23.798Z,13.60
2023-04-29T03:16:23.289Z,13.89
2023-04-29T03:17:23.197Z,13.80
2023-04-29T03:18:22.986Z,14.30
2023-04-29T03:19:23.543Z,15.69
2023-04-29T03:20:23.085Z,14
2023-04-29T03:21:23.752Z,14.5
2023-04-29T03:22:23.351Z,14.69
2023-04-29T03:23:22.914Z,14.30
2023-04-29T03:24:23.463Z,14.80
2023-04-29T03:25:23.034Z,13.60
2023-04-29T03:26:23.849Z,12.69
2023-04-29T03:27:23.657Z,13.80
2023-04-29T03:28:23.688Z,12.60
2023-04-29T03:29:23.466Z,15.69
2023-04-29T03:30:23.166Z,14.30
2023-04-29T03:31:23.178Z,12.69
2023-04-29T03:32:24.013Z,12.89
2023-04-29T03:33:23.620Z,13.80
2023-04-29T03:34:23.562Z,15.19
2023-04-29T03:35:23.424Z,14.5
2023-04-29T03:36:22.997Z,16.20
2023-04-29T03:37:23.398Z,15.19
2023-04-29T03:39:23.480Z,15.60
2023-04-29T03:40:23.405Z,14.89
2023-04-29T03:41:22.752Z,15.89
2023-04-29T03:42:23.222Z,15
2023-04-29T03:43:23.000Z,15.10
2023-04-29T03:44:23.406Z,16.20
2023-04-29T03:45:23.080Z,17.60
2023-04-29T03:46:23.484Z,17.89
2023-04-29T03:47:23.117Z,16.89
2023-04-29T03:48:23.544Z,17.89
2023-04-29T03:49:23.258Z,20.5
2023-04-29T03:50:23.128Z,18.70
2023-04-29T03:52:23.034Z,19.10
2023-04-29T03:53:23.553Z,21.39
2023-04-29T03:54:23.341Z,21.29
2023-04-29T03:55:23.626Z,21.70
2023-04-29T03:56:23.487Z,21.10
2023-04-29T03:57:23.573Z,21
2023-04-29T03:59:23.529Z,20.89
2023-04-29T04:00:24.082Z,20.29
2023-04-29T04:01:23.663Z,22.89
2023-04-29T04:02:23.788Z,21.89
2023-04-29T04:03:23.483Z,24.10
2023-04-29T04:04:23.754Z,23.10
2023-04-29T04:05:24.028Z,22.89
2023-04-29T04:06:23.753Z,21.79
2023-04-29T04:07:23.279Z,22.5
2023-04-29T04:08:22.972Z,23.5
2023-04-29T04:09:23.631Z,24.5
2023-04-29T04:10:23.466Z,25.60
2023-04-29T04:11:22.881Z,26.5
2023-04-29T04:12:23.443Z,24
2023-04-29T04:13:23.010Z,24.70
2023-04-29T04:14:23.547Z,26.79
2023-04-29T04:15:23.043Z,28.70
2023-04-29T04:16:23.650Z,29.79
2023-04-29T04:17:23.499Z,32
2023-04-29T04:18:23.342Z,36.40
2023-04-29T04:19:23.089Z,37.40
2023-04-29T04:20:23.629Z,36.90
2023-04-29T04:21:23.068Z,36.20
2023-04-29T04:22:23.493Z,40
2023-04-29T04:23:23.330Z,35.79
2023-04-29T04:24:22.989Z,36.40
2023-04-29T04:25:24.139Z,39
2023-04-29T04:26:22.930Z,35
2023-04-29T04:27:23.771Z,38.20
2023-04-29T04:28:23.443Z,35.5
2023-04-29T04:29:23.212Z,42.59
2023-04-29T04:30:24.082Z,41.40
2023-04-29T04:32:23.302Z,45.29
2023-04-29T04:33:23.227Z,45.70
2023-04-29T04:34:23.789Z,45.09
2023-04-29T04:35:23.409Z,43.09
2023-04-29T04:36:23.009Z,48.20
2023-04-29T04:38:26.891Z,53.09
2023-04-29T04:39:23.215Z,51.79
2023-04-29T04:40:23.893Z,52.40
2023-04-29T04:41:23.454Z,50.5
2023-04-29T04:42:23.190Z,51.20
2023-04-29T04:43:23.853Z,51.59
2023-04-29T04:44:23.761Z,53.09
2023-04-29T04:45:23.677Z,52.70
2023-04-29T04:46:23.397Z,51.59
2023-04-29T04:47:23.024Z,51.5
2023-04-29T04:48:23.170Z,49.09
2023-04-29T04:49:23.784Z,58.20
2023-04-29T04:50:23.853Z,52.20
2023-04-29T04:51:23.649Z,51
2023-04-29T04:52:23.607Z,55.40
2023-04-29T04:53:23.629Z,54.40
2023-04-29T04:54:23.255Z,56
2023-04-29T04:55:23.309Z,53.70
2023-04-29T04:56:22.996Z,55
2023-04-29T04:57:23.701Z,53.40
2023-04-29T04:58:23.567Z,54.20
2023-04-29T04:59:23.567Z,52.79
2023-04-29T05:00:24.419Z,57.29
2023-04-29T05:01:23.322Z,54.90
2023-04-29T05:02:23.988Z,59.5
2023-04-29T05:03:23.602Z,57.20
2023-04-29T05:04:23.366Z,55.09
2023-04-29T05:05:23.443Z,58.40
2023-04-29T05:06:23.273Z,58.20
2023-04-29T05:07:23.144Z,61
2023-04-29T05:08:23.833Z,61.40
2023-04-29T05:09:23.500Z,56.90
2023-04-29T05:10:23.743Z,57.90
2023-04-29T05:11:23.316Z,60.09
2023-04-29T05:12:23.132Z,60.40
2023-04-29T05:13:23.284Z,61.09
2023-04-29T05:14:23.949Z,59.09
2023-04-29T05:15:24.197Z,63.40
2023-04-29T05:16:23.222Z,60.59
2023-04-29T05:17:23.262Z,54.79
2023-04-29T05:18:23.068Z,57.90
2023-04-29T05:19:23.943Z,60.40
2023-04-29T05:20:28.851Z,60.59
2023-04-29T05:21:23.346Z,60
2023-04-29T05:22:28.276Z,63.79
2023-04-29T05:23:23.134Z,58.20
2023-04-29T05:24:24.047Z,59.5
2023-04-29T05:25:23.755Z,59.79
2023-04-29T05:26:23.714Z,59.20
2023-04-29T05:27:23.473Z,62.09
2023-04-29T05:28:23.236Z,56.90
2023-04-29T05:29:22.936Z,59.70
2023-04-29T05:30:23.934Z,62.79
2023-04-29T05:31:23.620Z,60.90
2023-04-29T05:32:37.227Z,55.79
2023-04-29T05:33:23.115Z,61.20
2023-04-29T05:34:37.747Z,61.59
2023-04-29T05:35:23.340Z,60
2023-04-29T05:36:22.971Z,65.19
2023-04-29T05:37:23.811Z,57.40
2023-04-29T05:38:23.527Z,59.70
2023-04-29T05:39:23.448Z,60.79
2023-04-29T05:40:23.566Z,60.40
2023-04-29T05:41:23.427Z,55.5
2023-04-29T05:42:23.183Z,54.09
2023-04-29T05:43:22.837Z,57.79
2023-04-29T05:44:23.983Z,54.70
2023-04-29T05:45:23.965Z,48.20
2023-04-29T05:46:23.765Z,49.5
2023-04-29T05:47:23.675Z,50
2023-04-29T05:48:23.673Z,48.40
2023-04-29T05:49:23.514Z,47.5
2023-04-29T05:50:23.233Z,41.20
2023-04-29T05:51:22.931Z,44.59
2023-04-29T05:52:23.620Z,39.29
2023-04-29T05:54:23.144Z,40
2023-04-29T05:55:23.990Z,39.70
2023-04-29T05:56:23.657Z,36.40
2023-04-29T05:57:23.360Z,34.59
2023-04-29T05:58:23.093Z,35.09
2023-04-29T05:59:23.743Z,37.20
2023-04-29T06:00:46.639Z,34.59
2023-04-29T06:01:23.085Z,34.40
2023-04-29T06:02:23.799Z,34.09
2023-04-29T06:03:23.877Z,36.5
2023-04-29T06:04:23.463Z,35.40
2023-04-29T06:05:23.490Z,35.5
2023-04-29T06:06:23.293Z,32.90
2023-04-29T06:07:23.220Z,32.5
2023-04-29T06:08:23.794Z,31.5
2023-04-29T06:09:27.567Z,31.39
2023-04-29T06:10:23.772Z,32.29
2023-04-29T06:11:23.578Z,31.89
2023-04-29T06:12:23.238Z,29
2023-04-29T06:13:23.681Z,29.39
2023-04-29T06:14:23.542Z,29.89
2023-04-29T06:15:23.380Z,31.60
2023-04-29T06:16:23.040Z,29.79
2023-04-29T06:17:23.163Z,31.10
2023-04-29T06:19:27.113Z,28.10
2023-04-29T06:20:23.735Z,27.79
2023-04-29T06:21:23.398Z,28.79
2023-04-29T06:22:23.277Z,28.39
2023-04-29T06:23:22.958Z,27.10
2023-04-29T06:24:23.357Z,28.60
2023-04-29T06:25:23.390Z,26.70
2023-04-29T06:26:23.045Z,27.5
2023-04-29T06:27:23.642Z,27.39
2023-04-29T06:28:23.404Z,26.10
2023-04-29T06:29:22.827Z,28.10
2023-04-29T06:30:24.118Z,24.5
2023-04-29T06:31:23.620Z,27
2023-04-29T06:32:23.152Z,22.39
2023-04-29T06:33:23.005Z,23.10
2023-04-29T06:34:23.453Z,23.89
2023-04-29T06:35:22.891Z,21.70
2023-04-29T06:36:23.513Z,20.70
2023-04-29T06:37:23.290Z,22.79
2023-04-29T06:38:22.932Z,21.70
2023-04-29T06:39:23.530Z,24
2023-04-29T06:40:23.206Z,22.29
2023-04-29T06:41:23.169Z,21.60
2023-04-29T06:42:23.003Z,22.89
2023-04-29T06:43:23.581Z,21.29
2023-04-29T06:44:23.199Z,21.39
2023-04-29T06:45:23.141Z,21.60
2023-04-29T06:46:23.681Z,22
2023-04-29T06:47:23.509Z,21.89
2023-04-29T06:48:23.484Z,20.60
2023-04-29T06:50:23.766Z,22.39
2023-04-29T06:51:23.802Z,22.20
2023-04-29T06:52:23.268Z,21.60
2023-04-29T06:53:22.974Z,20.79
2023-04-29T06:54:23.706Z,20
2023-04-29T06:55:23.692Z,20.10
2023-04-29T06:56:23.090Z,18.29
2023-04-29T06:57:23.136Z,19
2023-04-29T06:58:23.807Z,16.79
2023-04-29T07:00:24.282Z,15.19
2023-04-29T07:01:23.357Z,15.5
2023-04-29T07:02:23.454Z,15.19
2023-04-29T07:03:24.136Z,14.80
2023-04-29T07:04:23.063Z,14.30
2023-04-29T07:05:23.101Z,14.10
2023-04-29T07:06:23.075Z,13.69
2023-04-29T07:07:23.755Z,13.39
2023-04-29T07:08:23.338Z,13.30
2023-04-29T07:09:23.300Z,13
2023-04-29T07:10:23.489Z,12.69
2023-04-29T07:11:23.105Z,13.89
2023-04-29T07:12:23.120Z,14.10
2023-04-29T07:13:23.763Z,13.30
2023-04-29T07:14:23.163Z,12.80
2023-04-29T07:15:23.038Z,14.39
2023-04-29T07:16:23.731Z,12.80
2023-04-29T07:17:23.785Z,13.10
2023-04-29T07:18:23.449Z,12.69
2023-04-29T07:19:23.204Z,11.39
2023-04-29T07:20:23.147Z,13.39
2023-04-29T07:21:23.056Z,12.10
2023-04-29T07:22:23.900Z,11.89
2023-04-29T07:23:23.654Z,13
2023-04-29T07:24:23.350Z,12.69
2023-04-29T07:25:23.179Z,14.39
2023-04-29T07:26:23.199Z,14.19
2023-04-29T07:27:23.239Z,11.89
2023-04-29T07:28:22.994Z,12.39
2023-04-29T07:29:23.592Z,14.5
2023-04-29T07:30:23.506Z,13.39
2023-04-29T07:31:23.433Z,14.5
2023-04-29T07:32:23.616Z,12.69
2023-04-29T07:33:23.523Z,12.80
2023-04-29T07:34:23.302Z,13
2023-04-29T07:35:23.340Z,13.10
2023-04-29T07:36:23.278Z,13.39
2023-04-29T07:37:23.142Z,12.30
2023-04-29T07:38:23.201Z,12.10
2023-04-29T07:39:23.136Z,13
2023-04-29T07:40:23.937Z,12.69
2023-04-29T07:41:23.590Z,12.10
2023-04-29T07:42:23.394Z,12.69
2023-04-29T07:43:23.246Z,12.30
2023-04-29T07:44:23.266Z,12
2023-04-29T07:45:23.403Z,12.30
2023-04-29T07:47:23.447Z,12.19
2023-04-29T07:48:23.419Z,12.5
2023-04-29T07:49:23.435Z,11.89
2023-04-29T07:50:23.396Z,13
2023-04-29T07:51:23.264Z,12.89
2023-04-29T07:52:23.039Z,13.10
2023-04-29T07:53:24.063Z,12.30
2023-04-29T07:54:23.838Z,13.10
2023-04-29T07:55:23.323Z,11.89
2023-04-29T07:56:23.213Z,13.80
2023-04-29T07:57:23.273Z,13.39
2023-04-29T07:58:23.217Z,12.19
2023-04-29T07:59:23.583Z,14.60
2023-04-29T08:00:24.749Z,13.19
2023-04-29T08:01:37.768Z,13.60
2023-04-29T08:03:23.606Z,13.19
2023-04-29T08:04:23.525Z,12.69
2023-04-29T08:06:23.380Z,13.30
2023-04-29T08:07:23.490Z,13.69
2023-04-29T08:08:23.322Z,13.19
2023-04-29T08:09:23.456Z,12.89
2023-04-29T08:10:23.734Z,12
2023-04-29T08:11:23.998Z,14.10
2023-04-29T08:12:24.139Z,14.19
2023-04-29T08:13:23.896Z,15
2023-04-29T08:14:23.810Z,15.30
2023-04-29T08:15:23.937Z,15.69
2023-04-29T08:16:23.924Z,15.19
2023-04-29T08:17:23.622Z,17.29
2023-04-29T08:18:23.631Z,15.80
2023-04-29T08:19:23.647Z,15.60
2023-04-29T08:20:23.556Z,15.39
2023-04-29T08:21:45.285Z,14.60
2023-04-29T08:22:22.616Z,15.19
2023-04-29T08:23:23.391Z,13.39
2023-04-29T08:24:23.359Z,14.60
2023-04-29T08:25:23.752Z,14
2023-04-29T08:26:24.183Z,14.19
2023-04-29T08:27:23.841Z,15.30
2023-04-29T08:28:23.554Z,16.5
2023-04-29T08:29:23.481Z,16.29
2023-04-29T08:30:23.700Z,15.30
2023-04-29T08:31:23.615Z,14.69
2023-04-29T08:32:23.505Z,14
2023-04-29T08:33:23.601Z,15.19
2023-04-29T08:35:23.462Z,15.60
2023-04-29T08:36:23.290Z,14.80
2023-04-29T08:37:23.145Z,14.39
2023-04-29T08:38:23.906Z,14.5
2023-04-29T08:39:23.561Z,15.10
2023-04-29T08:40:23.814Z,14.89
2023-04-29T08:41:23.955Z,14.69
2023-04-29T08:42:24.055Z,15.19
2023-04-29T08:43:23.802Z,13.69
2023-04-29T08:44:23.851Z,14.30
2023-04-29T08:45:23.907Z,14.89
2023-04-29T08:46:24.097Z,14.30
2023-04-29T08:47:23.485Z,15
2023-04-29T08:48:24.003Z,15.39
2023-04-29T08:49:23.200Z,13.89
2023-04-29T08:50:23.480Z,14.60
2023-04-29T08:51:23.332Z,12.80
2023-04-29T08:52:23.487Z,16.79
2023-04-29T08:53:23.716Z,14.39
2023-04-29T08:54:23.714Z,14.60
2023-04-29T08:55:23.755Z,13.30
2023-04-29T08:56:24.089Z,14
2023-04-29T08:57:23.639Z,15.80
2023-04-29T08:59:23.894Z,14
2023-04-29T09:00:24.602Z,16.5
2023-04-29T09:01:23.877Z,13.80
2023-04-29T09:02:23.209Z,14.89
2023-04-29T09:03:23.486Z,12.5
2023-04-29T09:04:23.955Z,14
2023-04-29T09:05:23.412Z,14.60
2023-04-29T09:06:22.941Z,14.10
2023-04-29T09:07:23.967Z,14
2023-04-29T09:08:23.955Z,13.39
2023-04-29T09:09:23.906Z,15.69
2023-04-29T09:10:24.065Z,15
2023-04-29T09:11:23.979Z,14.30
2023-04-29T09:12:23.770Z,14.80
2023-04-29T09:13:23.777Z,14.5
2023-04-29T09:15:24.271Z,16.10
2023-04-29T09:16:23.944Z,15.10
2023-04-29T09:17:23.231Z,14.89
2023-04-29T09:18:23.466Z,13.5
2023-04-29T09:19:23.426Z,14.60
2023-04-29T09:20:23.677Z,14.69
2023-04-29T09:21:23.763Z,15.39
2023-04-29T09:22:23.605Z,14
2023-04-29T09:23:23.420Z,12.69
2023-04-29T09:24:23.418Z,13.60
2023-04-29T09:25:24.274Z,13.30
2023-04-29T09:26:23.684Z,13.5
2023-04-29T09:27:24.049Z,14.39
2023-04-29T09:28:23.821Z,14.89
2023-04-29T09:29:23.631Z,14.10
2023-04-29T09:30:23.742Z,14.89
2023-04-29T09:31:23.861Z,15.89
2023-04-29T09:32:23.263Z,13.80
2023-04-29T09:33:23.471Z,13.69
2023-04-29T09:34:23.295Z,13.60
2023-04-29T09:35:23.545Z,13.10
2023-04-29T09:36:23.723Z,13.89
2023-04-29T09:37:23.831Z,12.89
2023-04-29T09:38:23.667Z,15.60
2023-04-29T09:39:23.831Z,14.30
2023-04-29T09:40:23.829Z,13.10
2023-04-29T09:41:23.088Z,12.10
2023-04-29T09:42:23.744Z,12.80
2023-04-29T09:43:23.701Z,13.10
2023-04-29T09:44:23.791Z,11.60
2023-04-29T09:45:23.887Z,13.10
2023-04-29T09:46:23.671Z,11.80
2023-04-29T09:47:23.763Z,12.30
2023-04-29T09:48:23.708Z,11.89
2023-04-29T09:49:23.526Z,14.80
2023-04-29T09:50:23.314Z,11.39
2023-04-29T09:51:23.525Z,11.30
2023-04-29T09:53:23.364Z,10
2023-04-29T09:54:23.218Z,10.39
2023-04-29T09:55:23.522Z,11.19
2023-04-29T09:56:23.475Z,11
2023-04-29T09:57:23.821Z,9.899
2023-04-29T09:58:23.733Z,10.60
2023-04-29T10:00:24.496Z,9.600
2023-04-29T10:01:23.490Z,9.5
2023-04-29T10:02:26.324Z,10.69
2023-04-29T10:06:21.921Z,9.5
2023-04-29T10:07:21.447Z,10.69
2023-04-29T10:08:21.990Z,9.399
2023-04-29T10:09:21.700Z,8.600
2023-04-29T10:10:21.892Z,9.899
2023-04-29T10:11:21.549Z,9.800
2023-04-29T10:12:21.140Z,9.5
2023-04-29T10:13:21.702Z,9.899
2023-04-29T10:14:21.738Z,9.800
2023-04-29T10:15:22.048Z,9.600
2023-04-29T10:17:21.471Z,10.19
2023-04-29T10:18:21.580Z,11
2023-04-29T10:19:21.389Z,11.60
2023-04-29T10:20:35.483Z,10.60
2023-04-29T10:22:21.844Z,9.899
2023-04-29T10:23:21.327Z,10
2023-04-29T10:24:22.026Z,9.600
2023-04-29T10:25:21.923Z,10.19
2023-04-29T10:26:21.769Z,10.5
2023-04-29T10:27:22.234Z,11.30
2023-04-29T10:28:21.396Z,10.80
2023-04-29T10:29:21.970Z,10.39
2023-04-29T10:30:21.867Z,10.89
2023-04-29T10:31:21.664Z,13.10
2023-04-29T10:32:21.639Z,10.5
2023-04-29T10:33:21.613Z,11.30
2023-04-29T10:34:21.793Z,10.19
2023-04-29T10:35:21.994Z,11.30
2023-04-29T10:36:21.689Z,11
2023-04-29T10:37:21.320Z,11.5
2023-04-29T10:38:21.908Z,11.10
2023-04-29T10:39:21.609Z,10.10
2023-04-29T10:40:21.395Z,10.39
2023-04-29T10:41:21.299Z,9.899
2023-04-29T10:42:21.878Z,10.5
2023-04-29T10:43:21.376Z,9.699
2023-04-29T10:44:21.019Z,10.80
2023-04-29T10:45:21.890Z,10.19
2023-04-29T10:46:21.297Z,10.89
2023-04-29T10:47:21.918Z,11.19
2023-04-29T10:48:21.547Z,12.60
2023-04-29T10:49:22.087Z,13.5
2023-04-29T10:50:21.910Z,11.10
2023-04-29T10:51:21.596Z,12
2023-04-29T10:53:21.930Z,11.39
2023-04-29T10:54:21.494Z,11.80
2023-04-29T10:55:21.258Z,12.60
2023-04-29T10:56:21.862Z,12.89
2023-04-29T10:57:21.370Z,11.60
2023-04-29T10:58:21.203Z,13.5
2023-04-29T10:59:21.772Z,11.69
2023-04-29T11:00:22.324Z,12.39
2023-04-29T11:01:21.405Z,12.80
2023-04-29T11:02:21.339Z,13.60
2023-04-29T11:03:21.260Z,12.69
2023-04-29T11:04:21.489Z,13.10
2023-04-29T11:05:21.677Z,13
2023-04-29T11:06:21.597Z,13.80
2023-04-29T11:07:21.311Z,12.39
2023-04-29T11:08:21.300Z,13.19
2023-04-29T11:09:21.990Z,13.30
2023-04-29T11:10:22.069Z,12.80
2023-04-29T11:11:21.757Z,13.5
2023-04-29T11:12:21.352Z,14.5
2023-04-29T11:13:21.673Z,13.19
2023-04-29T11:14:21.320Z,11.60
2023-04-29T11:15:21.641Z,12.19
2023-04-29T11:16:21.306Z,12.89
2023-04-29T11:17:21.385Z,14.30
2023-04-29T11:18:21.608Z,12.5
2023-04-29T11:19:21.408Z,14.19
2023-04-29T11:20:21.422Z,13.19
2023-04-29T11:21:21.340Z,13.30
2023-04-29T11:22:21.300Z,13.19
2023-04-29T11:23:21.795Z,14
2023-04-29T11:24:21.633Z,14.39
2023-04-29T11:25:21.502Z,14.30
2023-04-29T11:26:21.867Z,13.5
2023-04-29T11:27:21.429Z,13.89
2023-04-29T11:28:21.363Z,17.10
2023-04-29T11:29:21.787Z,18.20
2023-04-29T11:30:21.770Z,18.5
2023-04-29T11:31:21.702Z,18.29
2023-04-29T11:32:21.947Z,17.70
2023-04-29T11:33:21.984Z,19.39
2023-04-29T11:34:21.763Z,18.70
2023-04-29T11:35:21.355Z,18.60
2023-04-29T11:37:21.510Z,18.10
2023-04-29T11:38:22.370Z,17.79
2023-04-29T11:39:23.946Z,17.70
2023-04-29T11:40:23.901Z,17.60
2023-04-29T11:41:23.712Z,18.5
2023-04-29T11:42:23.566Z,17
2023-04-29T11:43:23.427Z,17.20
2023-04-29T11:44:23.290Z,17.70
2023-04-29T11:45:23.163Z,18
2023-04-29T11:46:23.224Z,17.39
2023-04-29T11:47:23.118Z,18.60
2023-04-29T11:48:23.613Z,16.5
2023-04-29T11:49:23.496Z,20.39
2023-04-29T11:50:23.508Z,18.39
2023-04-29T11:51:23.403Z,18.5
2023-04-29T11:52:23.419Z,19
2023-04-29T11:53:23.216Z,20
2023-04-29T11:54:23.961Z,19.20
2023-04-29T11:55:24.017Z,18.79
2023-04-29T11:56:22.912Z,20.79
2023-04-29T11:57:23.605Z,20.5
2023-04-29T11:58:23.469Z,22.79
2023-04-29T11:59:23.161Z,20.70
2023-04-29T12:00:24.598Z,22.29
2023-04-29T12:01:23.827Z,23.60
2023-04-29T12:02:23.561Z,21.89
2023-04-29T12:03:23.381Z,19.70
2023-04-29T12:04:23.378Z,22.89
2023-04-29T12:05:23.855Z,22.39
2023-04-29T12:06:23.620Z,20.39
2023-04-29T12:07:23.199Z,20.20
2023-04-29T12:08:23.198Z,17.20
2023-04-29T12:09:22.965Z,18.5
2023-04-29T12:10:23.915Z,16.10
2023-04-29T12:11:23.853Z,19.5
2023-04-29T12:12:23.798Z,17.20
2023-04-29T12:13:23.368Z,17.79
2023-04-29T12:14:23.023Z,16.5
2023-04-29T12:15:23.808Z,17.5
2023-04-29T12:16:23.818Z,17
2023-04-29T12:17:23.306Z,18.10
2023-04-29T12:18:23.040Z,15.10
2023-04-29T12:19:23.641Z,16.39
2023-04-29T12:20:23.535Z,14.69
2023-04-29T12:21:22.986Z,15.30
2023-04-29T12:22:23.643Z,15.39
2023-04-29T12:23:23.523Z,16
2023-04-29T12:24:23.034Z,15.69
2023-04-29T12:25:23.658Z,15.10
2023-04-29T12:26:23.394Z,15.39
2023-04-29T12:27:22.845Z,14.39
2023-04-29T12:28:23.299Z,14.5
2023-04-29T12:29:23.106Z,15.10
2023-04-29T12:30:23.801Z,13.5
2023-04-29T12:31:28.573Z,16.10
2023-04-29T12:32:23.470Z,13.5
2023-04-29T12:33:28.442Z,14.89
2023-04-29T12:34:23.061Z,14.5
2023-04-29T12:35:23.604Z,15
2023-04-29T12:36:23.423Z,15.80
2023-04-29T12:37:23.522Z,15.60
2023-04-29T12:38:23.564Z,15.89
2023-04-29T12:39:23.126Z,15.19
2023-04-29T12:40:23.868Z,17.39
2023-04-29T12:41:23.337Z,16.70
2023-04-29T12:42:23.050Z,15.39
2023-04-29T12:43:23.601Z,15.69
2023-04-29T12:44:23.357Z,15.19
2023-04-29T12:45:23.302Z,15.39
2023-04-29T12:46:23.674Z,15.19
2023-04-29T12:47:24.155Z,14.89
2023-04-29T12:48:30.073Z,15.39
2023-04-29T12:49:23.425Z,13.80
2023-04-29T12:50:24.127Z,15.80
2023-04-29T12:51:23.930Z,15.30
2023-04-29T12:52:23.428Z,15.89
2023-04-29T12:54:23.165Z,14.39
2023-04-29T12:55:24.020Z,16.20
2023-04-29T12:56:23.297Z,17
2023-04-29T12:58:23.861Z,17.20
2023-04-29T12:59:23.654Z,18.29
2023-04-29T13:00:24.589Z,18.70
2023-04-29T13:01:23.973Z,17.29
2023-04-29T13:02:23.237Z,19.5
2023-04-29T13:04:23.387Z,22.60
2023-04-29T13:05:23.455Z,19
2023-04-29T13:06:23.294Z,18.20
2023-04-29T13:07:23.294Z,17.29
2023-04-29T13:08:23.780Z,17.79
2023-04-29T13:09:23.495Z,18.10
2023-04-29T13:10:23.658Z,19.29
2023-04-29T13:11:23.673Z,19
2023-04-29T13:12:23.521Z,23.29
2023-04-29T13:13:23.371Z,20.79
2023-04-29T13:14:23.594Z,22.89
2023-04-29T13:15:23.675Z,20.5
2023-04-29T13:16:23.573Z,22.60
2023-04-29T13:17:23.333Z,23.79
2023-04-29T13:18:23.469Z,23.89
2023-04-29T13:19:32.131Z,21.10
2023-04-29T13:20:23.663Z,21.89
2023-04-29T13:21:23.543Z,20.5
2023-04-29T13:22:23.367Z,22.20
2023-04-29T13:23:23.430Z,24.10
2023-04-29T13:24:23.644Z,23.20
2023-04-29T13:25:23.955Z,24
2023-04-29T13:26:23.806Z,27
2023-04-29T13:27:23.738Z,28.20
2023-04-29T13:28:23.447Z,30.60
2023-04-29T13:29:24.004Z,24.89
2023-04-29T13:30:24.005Z,29.89
2023-04-29T13:31:23.567Z,31.10
2023-04-29T13:33:23.675Z,31.70
2023-04-29T13:34:23.390Z,32.79
2023-04-29T13:36:26.300Z,32.79
2023-04-29T13:37:23.231Z,31.5
2023-04-29T13:38:23.773Z,32.70
2023-04-29T13:39:23.590Z,31.29
2023-04-29T13:40:27.574Z,31.79